sensor_id;sensor_type;location;lat;lon;timestamp;P1;durP1;ratioP1;P2;durP2;ratioP2
66425;SDS011;53237;46.158;14.604;2024-02-26T00:00:00;11.32;;;7.07;;
66425;SDS011;53237;46.158;14.604;2024-02-26T00:02:26;11.68;;;6.50;;
66425;SDS011;53237;46.158;14.604;2024-02-26T00:04:52;12.75;;;7.68;;
66425;SDS011;53237;46.158;14.604;2024-02-26T00:07:18;10.18;;;6.22;;
66425;SDS011;53237;46.158;14.604;2024-02-26T00:09:44;10.75;;;6.05;;
66425;SDS011;53237;46.158;14.604;2024-02-26T00:12:10;11.10;;;6.72;;
66425;SDS011;53237;46.158;14.604;2024-02-26T00:14:36;9.27;;;5.88;;
66425;SDS011;53237;46.158;14.604;2024-02-26T00:17:02;8.65;;;5.25;;
66425;SDS011;53237;46.158;14.604;2024-02-26T00:19:28;8.68;;;5.30;;
66425;SDS011;53237;46.158;14.604;2024-02-26T00:21:53;8.13;;;5.40;;
66425;SDS011;53237;46.158;14.604;2024-02-26T00:24:20;6.97;;;5.15;;
66425;SDS011;53237;46.158;14.604;2024-02-26T00:26:46;8.93;;;5.45;;
66425;SDS011;53237;46.158;14.604;2024-02-26T00:29:18;7.60;;;4.90;;
66425;SDS011;53237;46.158;14.604;2024-02-26T00:31:44;7.00;;;4.93;;
66425;SDS011;53237;46.158;14.604;2024-02-26T00:34:10;8.75;;;5.15;;
66425;SDS011;53237;46.158;14.604;2024-02-26T00:36:36;7.43;;;4.72;;
66425;SDS011;53237;46.158;14.604;2024-02-26T00:39:01;6.55;;;4.65;;
66425;SDS011;53237;46.158;14.604;2024-02-26T00:41:28;9.00;;;5.43;;
66425;SDS011;53237;46.158;14.604;2024-02-26T00:43:54;16.17;;;8.88;;
66425;SDS011;53237;46.158;14.604;2024-02-26T00:46:20;12.48;;;7.88;;
66425;SDS011;53237;46.158;14.604;2024-02-26T00:48:46;14.18;;;8.20;;
66425;SDS011;53237;46.158;14.604;2024-02-26T00:51:12;10.65;;;6.70;;
66425;SDS011;53237;46.158;14.604;2024-02-26T00:53:38;11.15;;;6.93;;
66425;SDS011;53237;46.158;14.604;2024-02-26T00:56:04;10.82;;;6.80;;
66425;SDS011;53237;46.158;14.604;2024-02-26T00:58:31;10.70;;;6.65;;
66425;SDS011;53237;46.158;14.604;2024-02-26T01:00:57;10.45;;;6.50;;
66425;SDS011;53237;46.158;14.604;2024-02-26T01:03:24;9.77;;;6.25;;
66425;SDS011;53237;46.158;14.604;2024-02-26T01:05:50;11.75;;;6.10;;
66425;SDS011;53237;46.158;14.604;2024-02-26T01:08:16;10.60;;;5.93;;
66425;SDS011;53237;46.158;14.604;2024-02-26T01:10:42;8.77;;;5.88;;
66425;SDS011;53237;46.158;14.604;2024-02-26T01:13:08;9.85;;;5.88;;
66425;SDS011;53237;46.158;14.604;2024-02-26T01:15:34;8.80;;;5.10;;
66425;SDS011;53237;46.158;14.604;2024-02-26T01:18:00;8.77;;;5.30;;
66425;SDS011;53237;46.158;14.604;2024-02-26T01:20:26;8.50;;;5.70;;
66425;SDS011;53237;46.158;14.604;2024-02-26T01:22:52;9.05;;;5.20;;
66425;SDS011;53237;46.158;14.604;2024-02-26T01:25:18;8.93;;;5.95;;
66425;SDS011;53237;46.158;14.604;2024-02-26T01:27:44;7.30;;;5.05;;
66425;SDS011;53237;46.158;14.604;2024-02-26T01:30:10;8.13;;;5.13;;
66425;SDS011;53237;46.158;14.604;2024-02-26T01:32:36;8.10;;;5.63;;
66425;SDS011;53237;46.158;14.604;2024-02-26T01:35:02;7.60;;;5.25;;
66425;SDS011;53237;46.158;14.604;2024-02-26T01:37:29;6.80;;;5.05;;
66425;SDS011;53237;46.158;14.604;2024-02-26T01:39:55;7.35;;;4.78;;
66425;SDS011;53237;46.158;14.604;2024-02-26T01:42:21;7.95;;;4.78;;
66425;SDS011;53237;46.158;14.604;2024-02-26T01:44:47;7.15;;;4.85;;
66425;SDS011;53237;46.158;14.604;2024-02-26T01:47:13;6.75;;;4.95;;
66425;SDS011;53237;46.158;14.604;2024-02-26T01:49:39;7.97;;;4.55;;
66425;SDS011;53237;46.158;14.604;2024-02-26T01:52:06;7.13;;;4.68;;
66425;SDS011;53237;46.158;14.604;2024-02-26T01:54:33;5.78;;;4.05;;
66425;SDS011;53237;46.158;14.604;2024-02-26T01:57:00;6.63;;;4.10;;
66425;SDS011;53237;46.158;14.604;2024-02-26T01:59:27;5.85;;;4.03;;
66425;SDS011;53237;46.158;14.604;2024-02-26T02:01:54;6.88;;;4.53;;
66425;SDS011;53237;46.158;14.604;2024-02-26T02:04:21;6.30;;;4.57;;
66425;SDS011;53237;46.158;14.604;2024-02-26T02:06:47;5.65;;;4.03;;
66425;SDS011;53237;46.158;14.604;2024-02-26T02:09:14;7.00;;;3.92;;
66425;SDS011;53237;46.158;14.604;2024-02-26T02:11:40;5.88;;;4.22;;
66425;SDS011;53237;46.158;14.604;2024-02-26T02:14:07;6.95;;;4.30;;
66425;SDS011;53237;46.158;14.604;2024-02-26T02:16:33;5.18;;;3.72;;
66425;SDS011;53237;46.158;14.604;2024-02-26T02:18:59;6.63;;;4.25;;
66425;SDS011;53237;46.158;14.604;2024-02-26T02:21:25;6.70;;;4.72;;
66425;SDS011;53237;46.158;14.604;2024-02-26T02:23:51;5.93;;;4.07;;
66425;SDS011;53237;46.158;14.604;2024-02-26T02:26:17;6.30;;;3.75;;
66425;SDS011;53237;46.158;14.604;2024-02-26T02:28:44;6.88;;;4.30;;
66425;SDS011;53237;46.158;14.604;2024-02-26T02:31:12;6.45;;;4.38;;
66425;SDS011;53237;46.158;14.604;2024-02-26T02:33:38;8.05;;;4.65;;
66425;SDS011;53237;46.158;14.604;2024-02-26T02:36:04;6.93;;;4.65;;
66425;SDS011;53237;46.158;14.604;2024-02-26T02:38:34;5.60;;;3.78;;
66425;SDS011;53237;46.158;14.604;2024-02-26T02:41:00;5.10;;;4.18;;
66425;SDS011;53237;46.158;14.604;2024-02-26T02:43:26;5.65;;;3.90;;
66425;SDS011;53237;46.158;14.604;2024-02-26T02:45:52;5.57;;;4.00;;
66425;SDS011;53237;46.158;14.604;2024-02-26T02:48:18;6.72;;;4.50;;
66425;SDS011;53237;46.158;14.604;2024-02-26T02:50:44;6.53;;;4.38;;
66425;SDS011;53237;46.158;14.604;2024-02-26T02:53:10;6.03;;;4.20;;
66425;SDS011;53237;46.158;14.604;2024-02-26T02:55:36;5.10;;;3.53;;
66425;SDS011;53237;46.158;14.604;2024-02-26T02:58:02;6.20;;;4.43;;
66425;SDS011;53237;46.158;14.604;2024-02-26T03:00:28;6.18;;;4.38;;
66425;SDS011;53237;46.158;14.604;2024-02-26T03:02:54;5.28;;;3.92;;
66425;SDS011;53237;46.158;14.604;2024-02-26T03:05:20;6.65;;;4.38;;
66425;SDS011;53237;46.158;14.604;2024-02-26T03:07:47;5.72;;;4.32;;
66425;SDS011;53237;46.158;14.604;2024-02-26T03:10:13;5.95;;;4.18;;
66425;SDS011;53237;46.158;14.604;2024-02-26T03:12:39;6.28;;;4.15;;
66425;SDS011;53237;46.158;14.604;2024-02-26T03:15:05;6.35;;;4.07;;
66425;SDS011;53237;46.158;14.604;2024-02-26T03:17:31;6.60;;;4.20;;
66425;SDS011;53237;46.158;14.604;2024-02-26T03:19:57;5.57;;;4.28;;
66425;SDS011;53237;46.158;14.604;2024-02-26T03:22:23;5.72;;;4.18;;
66425;SDS011;53237;46.158;14.604;2024-02-26T03:24:49;6.22;;;4.20;;
66425;SDS011;53237;46.158;14.604;2024-02-26T03:27:15;6.70;;;4.18;;
66425;SDS011;53237;46.158;14.604;2024-02-26T03:29:41;5.57;;;3.95;;
66425;SDS011;53237;46.158;14.604;2024-02-26T03:32:07;5.40;;;4.13;;
66425;SDS011;53237;46.158;14.604;2024-02-26T03:34:33;7.93;;;4.28;;
66425;SDS011;53237;46.158;14.604;2024-02-26T03:36:59;5.00;;;3.78;;
66425;SDS011;53237;46.158;14.604;2024-02-26T03:39:26;5.70;;;4.20;;
66425;SDS011;53237;46.158;14.604;2024-02-26T03:41:52;5.90;;;4.25;;
66425;SDS011;53237;46.158;14.604;2024-02-26T03:44:18;5.75;;;3.78;;
66425;SDS011;53237;46.158;14.604;2024-02-26T03:46:44;6.15;;;4.00;;
66425;SDS011;53237;46.158;14.604;2024-02-26T03:49:10;4.47;;;3.67;;
66425;SDS011;53237;46.158;14.604;2024-02-26T03:51:36;4.95;;;3.70;;
66425;SDS011;53237;46.158;14.604;2024-02-26T03:54:02;4.32;;;3.33;;
66425;SDS011;53237;46.158;14.604;2024-02-26T03:56:28;4.35;;;3.45;;
66425;SDS011;53237;46.158;14.604;2024-02-26T03:58:54;6.03;;;3.75;;
66425;SDS011;53237;46.158;14.604;2024-02-26T04:01:20;5.22;;;3.67;;
66425;SDS011;53237;46.158;14.604;2024-02-26T04:03:46;4.28;;;3.25;;
66425;SDS011;53237;46.158;14.604;2024-02-26T04:06:12;5.00;;;3.40;;
66425;SDS011;53237;46.158;14.604;2024-02-26T04:08:39;5.65;;;3.90;;
66425;SDS011;53237;46.158;14.604;2024-02-26T04:11:05;3.88;;;3.28;;
66425;SDS011;53237;46.158;14.604;2024-02-26T04:13:35;4.78;;;3.53;;
66425;SDS011;53237;46.158;14.604;2024-02-26T04:16:03;5.82;;;4.07;;
66425;SDS011;53237;46.158;14.604;2024-02-26T04:18:29;5.80;;;3.55;;
66425;SDS011;53237;46.158;14.604;2024-02-26T04:20:55;5.30;;;3.63;;
66425;SDS011;53237;46.158;14.604;2024-02-26T04:23:22;4.85;;;3.35;;
66425;SDS011;53237;46.158;14.604;2024-02-26T04:25:48;5.22;;;3.28;;
66425;SDS011;53237;46.158;14.604;2024-02-26T04:28:14;3.95;;;3.13;;
66425;SDS011;53237;46.158;14.604;2024-02-26T04:30:40;4.22;;;3.17;;
66425;SDS011;53237;46.158;14.604;2024-02-26T04:33:06;4.35;;;3.47;;
66425;SDS011;53237;46.158;14.604;2024-02-26T04:35:32;5.50;;;3.47;;
66425;SDS011;53237;46.158;14.604;2024-02-26T04:38:00;4.25;;;3.03;;
66425;SDS011;53237;46.158;14.604;2024-02-26T04:40:26;4.53;;;3.05;;
66425;SDS011;53237;46.158;14.604;2024-02-26T04:42:52;4.05;;;3.03;;
66425;SDS011;53237;46.158;14.604;2024-02-26T04:45:18;5.40;;;3.67;;
66425;SDS011;53237;46.158;14.604;2024-02-26T04:47:44;6.03;;;3.50;;
66425;SDS011;53237;46.158;14.604;2024-02-26T04:50:10;6.90;;;3.65;;
66425;SDS011;53237;46.158;14.604;2024-02-26T04:52:36;6.53;;;3.42;;
66425;SDS011;53237;46.158;14.604;2024-02-26T04:55:02;4.38;;;3.30;;
66425;SDS011;53237;46.158;14.604;2024-02-26T04:57:28;5.57;;;3.60;;
66425;SDS011;53237;46.158;14.604;2024-02-26T04:59:54;5.05;;;3.45;;
66425;SDS011;53237;46.158;14.604;2024-02-26T05:02:20;3.90;;;3.05;;
66425;SDS011;53237;46.158;14.604;2024-02-26T05:04:46;3.65;;;3.05;;
66425;SDS011;53237;46.158;14.604;2024-02-26T05:07:12;3.55;;;3.15;;
66425;SDS011;53237;46.158;14.604;2024-02-26T05:09:39;3.55;;;2.88;;
66425;SDS011;53237;46.158;14.604;2024-02-26T05:12:07;3.90;;;2.92;;
66425;SDS011;53237;46.158;14.604;2024-02-26T05:14:33;4.50;;;3.22;;
66425;SDS011;53237;46.158;14.604;2024-02-26T05:16:59;4.53;;;3.38;;
66425;SDS011;53237;46.158;14.604;2024-02-26T05:19:25;3.95;;;3.08;;
66425;SDS011;53237;46.158;14.604;2024-02-26T05:21:51;4.22;;;2.90;;
66425;SDS011;53237;46.158;14.604;2024-02-26T05:24:17;3.90;;;3.03;;
66425;SDS011;53237;46.158;14.604;2024-02-26T05:26:45;3.47;;;3.05;;
66425;SDS011;53237;46.158;14.604;2024-02-26T05:29:11;4.68;;;3.42;;
66425;SDS011;53237;46.158;14.604;2024-02-26T05:31:37;4.30;;;3.17;;
66425;SDS011;53237;46.158;14.604;2024-02-26T05:34:03;3.22;;;2.80;;
66425;SDS011;53237;46.158;14.604;2024-02-26T05:36:29;4.78;;;3.10;;
66425;SDS011;53237;46.158;14.604;2024-02-26T05:38:58;4.15;;;3.38;;
66425;SDS011;53237;46.158;14.604;2024-02-26T05:41:25;6.10;;;3.88;;
66425;SDS011;53237;46.158;14.604;2024-02-26T05:43:54;3.28;;;2.97;;
66425;SDS011;53237;46.158;14.604;2024-02-26T05:46:21;4.18;;;3.38;;
66425;SDS011;53237;46.158;14.604;2024-02-26T05:48:47;4.90;;;3.60;;
66425;SDS011;53237;46.158;14.604;2024-02-26T05:51:14;4.60;;;3.58;;
66425;SDS011;53237;46.158;14.604;2024-02-26T05:53:43;3.63;;;3.25;;
66425;SDS011;53237;46.158;14.604;2024-02-26T05:56:09;3.63;;;3.20;;
66425;SDS011;53237;46.158;14.604;2024-02-26T05:58:35;4.05;;;3.20;;
66425;SDS011;53237;46.158;14.604;2024-02-26T06:01:01;4.13;;;3.60;;
66425;SDS011;53237;46.158;14.604;2024-02-26T06:03:27;4.45;;;3.85;;
66425;SDS011;53237;46.158;14.604;2024-02-26T06:05:53;4.35;;;3.10;;
66425;SDS011;53237;46.158;14.604;2024-02-26T06:08:19;3.55;;;3.10;;
66425;SDS011;53237;46.158;14.604;2024-02-26T06:10:45;4.43;;;3.53;;
66425;SDS011;53237;46.158;14.604;2024-02-26T06:13:12;5.80;;;4.00;;
66425;SDS011;53237;46.158;14.604;2024-02-26T06:15:38;4.13;;;3.33;;
66425;SDS011;53237;46.158;14.604;2024-02-26T06:18:04;5.22;;;3.60;;
66425;SDS011;53237;46.158;14.604;2024-02-26T06:20:30;4.18;;;3.35;;
66425;SDS011;53237;46.158;14.604;2024-02-26T06:22:56;5.38;;;3.35;;
66425;SDS011;53237;46.158;14.604;2024-02-26T06:25:22;8.30;;;5.30;;
66425;SDS011;53237;46.158;14.604;2024-02-26T06:27:48;5.35;;;3.38;;
66425;SDS011;53237;46.158;14.604;2024-02-26T06:30:14;5.82;;;3.95;;
66425;SDS011;53237;46.158;14.604;2024-02-26T06:32:40;4.25;;;3.25;;
66425;SDS011;53237;46.158;14.604;2024-02-26T06:35:06;4.20;;;3.47;;
66425;SDS011;53237;46.158;14.604;2024-02-26T06:37:34;3.90;;;3.03;;
66425;SDS011;53237;46.158;14.604;2024-02-26T06:40:01;3.85;;;3.03;;
66425;SDS011;53237;46.158;14.604;2024-02-26T06:42:31;4.85;;;3.42;;
66425;SDS011;53237;46.158;14.604;2024-02-26T06:44:57;8.85;;;4.32;;
66425;SDS011;53237;46.158;14.604;2024-02-26T06:47:23;5.93;;;4.00;;
66425;SDS011;53237;46.158;14.604;2024-02-26T06:49:50;5.13;;;3.50;;
66425;SDS011;53237;46.158;14.604;2024-02-26T06:52:16;5.03;;;3.53;;
66425;SDS011;53237;46.158;14.604;2024-02-26T06:54:42;6.63;;;4.68;;
66425;SDS011;53237;46.158;14.604;2024-02-26T06:57:08;4.93;;;3.40;;
66425;SDS011;53237;46.158;14.604;2024-02-26T06:59:34;5.78;;;4.00;;
66425;SDS011;53237;46.158;14.604;2024-02-26T07:02:00;4.28;;;3.58;;
66425;SDS011;53237;46.158;14.604;2024-02-26T07:04:26;4.78;;;3.70;;
66425;SDS011;53237;46.158;14.604;2024-02-26T07:06:52;5.18;;;3.75;;
66425;SDS011;53237;46.158;14.604;2024-02-26T07:09:18;4.97;;;3.55;;
66425;SDS011;53237;46.158;14.604;2024-02-26T07:11:44;5.57;;;3.92;;
66425;SDS011;53237;46.158;14.604;2024-02-26T07:14:10;5.93;;;3.80;;
66425;SDS011;53237;46.158;14.604;2024-02-26T07:16:36;4.28;;;3.30;;
66425;SDS011;53237;46.158;14.604;2024-02-26T07:19:02;11.68;;;6.57;;
66425;SDS011;53237;46.158;14.604;2024-02-26T07:21:28;24.05;;;16.27;;
66425;SDS011;53237;46.158;14.604;2024-02-26T07:23:55;13.77;;;7.47;;
66425;SDS011;53237;46.158;14.604;2024-02-26T07:26:21;7.72;;;5.28;;
66425;SDS011;53237;46.158;14.604;2024-02-26T07:28:49;9.90;;;5.88;;
66425;SDS011;53237;46.158;14.604;2024-02-26T07:31:15;7.55;;;4.85;;
66425;SDS011;53237;46.158;14.604;2024-02-26T07:33:41;9.43;;;6.00;;
66425;SDS011;53237;46.158;14.604;2024-02-26T07:36:07;6.68;;;5.05;;
66425;SDS011;53237;46.158;14.604;2024-02-26T07:38:33;7.20;;;5.13;;
66425;SDS011;53237;46.158;14.604;2024-02-26T07:41:01;6.72;;;4.43;;
66425;SDS011;53237;46.158;14.604;2024-02-26T07:43:27;7.30;;;5.32;;
66425;SDS011;53237;46.158;14.604;2024-02-26T07:45:53;6.95;;;5.20;;
66425;SDS011;53237;46.158;14.604;2024-02-26T07:48:19;8.00;;;5.63;;
66425;SDS011;53237;46.158;14.604;2024-02-26T07:50:45;8.02;;;5.90;;
66425;SDS011;53237;46.158;14.604;2024-02-26T07:53:11;6.90;;;5.00;;
66425;SDS011;53237;46.158;14.604;2024-02-26T07:55:37;10.05;;;5.60;;
66425;SDS011;53237;46.158;14.604;2024-02-26T07:58:03;7.25;;;5.03;;
66425;SDS011;53237;46.158;14.604;2024-02-26T08:00:29;4.85;;;4.30;;
66425;SDS011;53237;46.158;14.604;2024-02-26T08:02:55;5.80;;;4.68;;
66425;SDS011;53237;46.158;14.604;2024-02-26T08:05:21;9.73;;;5.20;;
66425;SDS011;53237;46.158;14.604;2024-02-26T08:07:47;6.65;;;4.38;;
66425;SDS011;53237;46.158;14.604;2024-02-26T08:10:13;11.20;;;6.07;;
66425;SDS011;53237;46.158;14.604;2024-02-26T08:12:39;7.80;;;5.53;;
66425;SDS011;53237;46.158;14.604;2024-02-26T08:15:06;8.73;;;5.25;;
66425;SDS011;53237;46.158;14.604;2024-02-26T08:17:32;6.13;;;4.55;;
66425;SDS011;53237;46.158;14.604;2024-02-26T08:19:59;6.13;;;4.72;;
66425;SDS011;53237;46.158;14.604;2024-02-26T08:22:25;6.90;;;4.32;;
66425;SDS011;53237;46.158;14.604;2024-02-26T08:24:51;6.07;;;4.38;;
66425;SDS011;53237;46.158;14.604;2024-02-26T08:27:17;5.53;;;4.35;;
66425;SDS011;53237;46.158;14.604;2024-02-26T08:29:43;5.95;;;4.43;;
66425;SDS011;53237;46.158;14.604;2024-02-26T08:32:09;6.88;;;5.03;;
66425;SDS011;53237;46.158;14.604;2024-02-26T08:34:35;6.63;;;4.65;;
66425;SDS011;53237;46.158;14.604;2024-02-26T08:37:02;7.15;;;4.90;;
66425;SDS011;53237;46.158;14.604;2024-02-26T08:39:28;7.57;;;4.75;;
66425;SDS011;53237;46.158;14.604;2024-02-26T08:41:54;6.32;;;4.68;;
66425;SDS011;53237;46.158;14.604;2024-02-26T08:44:20;7.90;;;5.38;;
66425;SDS011;53237;46.158;14.604;2024-02-26T08:46:46;7.80;;;4.68;;
66425;SDS011;53237;46.158;14.604;2024-02-26T08:49:12;6.00;;;5.05;;
66425;SDS011;53237;46.158;14.604;2024-02-26T08:51:42;7.03;;;4.95;;
66425;SDS011;53237;46.158;14.604;2024-02-26T08:54:11;7.60;;;5.15;;
66425;SDS011;53237;46.158;14.604;2024-02-26T08:56:37;7.20;;;4.93;;
66425;SDS011;53237;46.158;14.604;2024-02-26T08:59:03;8.35;;;5.22;;
66425;SDS011;53237;46.158;14.604;2024-02-26T09:01:30;6.88;;;4.93;;
66425;SDS011;53237;46.158;14.604;2024-02-26T09:03:57;6.35;;;4.57;;
66425;SDS011;53237;46.158;14.604;2024-02-26T09:06:24;15.90;;;8.15;;
66425;SDS011;53237;46.158;14.604;2024-02-26T09:08:50;9.68;;;6.15;;
66425;SDS011;53237;46.158;14.604;2024-02-26T09:11:16;8.35;;;6.32;;
66425;SDS011;53237;46.158;14.604;2024-02-26T09:13:42;6.72;;;5.05;;
66425;SDS011;53237;46.158;14.604;2024-02-26T09:16:08;10.02;;;7.30;;
66425;SDS011;53237;46.158;14.604;2024-02-26T09:18:34;10.98;;;7.25;;
66425;SDS011;53237;46.158;14.604;2024-02-26T09:21:03;8.02;;;5.28;;
66425;SDS011;53237;46.158;14.604;2024-02-26T09:23:30;6.88;;;5.15;;
66425;SDS011;53237;46.158;14.604;2024-02-26T09:25:56;6.85;;;5.07;;
66425;SDS011;53237;46.158;14.604;2024-02-26T09:28:22;7.32;;;5.35;;
66425;SDS011;53237;46.158;14.604;2024-02-26T09:30:48;12.15;;;7.15;;
66425;SDS011;53237;46.158;14.604;2024-02-26T09:33:15;7.35;;;5.60;;
66425;SDS011;53237;46.158;14.604;2024-02-26T09:35:41;8.35;;;6.53;;
66425;SDS011;53237;46.158;14.604;2024-02-26T09:38:07;7.72;;;5.82;;
66425;SDS011;53237;46.158;14.604;2024-02-26T09:40:33;8.05;;;6.40;;
66425;SDS011;53237;46.158;14.604;2024-02-26T09:42:59;11.23;;;6.22;;
66425;SDS011;53237;46.158;14.604;2024-02-26T09:45:28;9.77;;;6.05;;
66425;SDS011;53237;46.158;14.604;2024-02-26T09:47:56;8.13;;;6.47;;
66425;SDS011;53237;46.158;14.604;2024-02-26T09:50:22;12.73;;;8.45;;
66425;SDS011;53237;46.158;14.604;2024-02-26T09:52:49;15.02;;;9.23;;
66425;SDS011;53237;46.158;14.604;2024-02-26T09:55:15;11.57;;;6.80;;
66425;SDS011;53237;46.158;14.604;2024-02-26T09:57:43;9.02;;;6.40;;
66425;SDS011;53237;46.158;14.604;2024-02-26T10:00:10;11.15;;;6.78;;
66425;SDS011;53237;46.158;14.604;2024-02-26T10:02:40;9.77;;;6.50;;
66425;SDS011;53237;46.158;14.604;2024-02-26T10:05:06;8.90;;;7.03;;
66425;SDS011;53237;46.158;14.604;2024-02-26T10:07:33;8.05;;;6.50;;
66425;SDS011;53237;46.158;14.604;2024-02-26T10:09:59;9.80;;;6.97;;
66425;SDS011;53237;46.158;14.604;2024-02-26T10:12:25;9.45;;;7.38;;
66425;SDS011;53237;46.158;14.604;2024-02-26T10:14:56;10.33;;;7.10;;
66425;SDS011;53237;46.158;14.604;2024-02-26T10:17:22;9.95;;;6.90;;
66425;SDS011;53237;46.158;14.604;2024-02-26T10:19:48;9.75;;;6.95;;
66425;SDS011;53237;46.158;14.604;2024-02-26T10:22:16;9.02;;;6.47;;
66425;SDS011;53237;46.158;14.604;2024-02-26T10:24:42;7.75;;;6.15;;
66425;SDS011;53237;46.158;14.604;2024-02-26T10:27:08;8.43;;;6.47;;
66425;SDS011;53237;46.158;14.604;2024-02-26T10:29:35;9.68;;;7.25;;
66425;SDS011;53237;46.158;14.604;2024-02-26T10:32:01;11.55;;;6.55;;
66425;SDS011;53237;46.158;14.604;2024-02-26T10:34:27;7.55;;;5.88;;
66425;SDS011;53237;46.158;14.604;2024-02-26T10:36:53;8.95;;;6.72;;
66425;SDS011;53237;46.158;14.604;2024-02-26T10:39:19;9.15;;;7.28;;
66425;SDS011;53237;46.158;14.604;2024-02-26T10:41:45;8.45;;;6.00;;
66425;SDS011;53237;46.158;14.604;2024-02-26T10:44:12;8.05;;;6.10;;
66425;SDS011;53237;46.158;14.604;2024-02-26T10:46:40;9.18;;;7.00;;
66425;SDS011;53237;46.158;14.604;2024-02-26T10:49:08;12.05;;;8.38;;
66425;SDS011;53237;46.158;14.604;2024-02-26T10:51:38;13.68;;;8.27;;
66425;SDS011;53237;46.158;14.604;2024-02-26T10:54:04;10.10;;;6.97;;
66425;SDS011;53237;46.158;14.604;2024-02-26T10:56:33;12.10;;;7.38;;
66425;SDS011;53237;46.158;14.604;2024-02-26T10:58:59;10.27;;;8.40;;
66425;SDS011;53237;46.158;14.604;2024-02-26T11:01:26;9.02;;;7.00;;
66425;SDS011;53237;46.158;14.604;2024-02-26T11:03:54;10.27;;;8.48;;
66425;SDS011;53237;46.158;14.604;2024-02-26T11:06:21;11.52;;;8.00;;
66425;SDS011;53237;46.158;14.604;2024-02-26T11:08:48;11.68;;;8.43;;
66425;SDS011;53237;46.158;14.604;2024-02-26T11:11:15;8.70;;;6.43;;
66425;SDS011;53237;46.158;14.604;2024-02-26T11:13:42;10.27;;;7.28;;
66425;SDS011;53237;46.158;14.604;2024-02-26T11:16:13;10.00;;;7.47;;
66425;SDS011;53237;46.158;14.604;2024-02-26T11:18:39;16.70;;;10.48;;
66425;SDS011;53237;46.158;14.604;2024-02-26T11:21:06;9.00;;;7.25;;
66425;SDS011;53237;46.158;14.604;2024-02-26T11:23:33;11.52;;;8.38;;
66425;SDS011;53237;46.158;14.604;2024-02-26T11:26:02;13.57;;;7.70;;
66425;SDS011;53237;46.158;14.604;2024-02-26T11:28:30;12.00;;;8.40;;
66425;SDS011;53237;46.158;14.604;2024-02-26T11:30:57;12.80;;;8.98;;
66425;SDS011;53237;46.158;14.604;2024-02-26T11:33:24;9.30;;;6.68;;
66425;SDS011;53237;46.158;14.604;2024-02-26T11:35:51;9.32;;;6.85;;
66425;SDS011;53237;46.158;14.604;2024-02-26T11:38:17;9.32;;;6.95;;
66425;SDS011;53237;46.158;14.604;2024-02-26T11:40:46;8.88;;;6.45;;
66425;SDS011;53237;46.158;14.604;2024-02-26T11:43:12;10.95;;;7.30;;
66425;SDS011;53237;46.158;14.604;2024-02-26T11:48:11;9.77;;;7.65;;
66425;SDS011;53237;46.158;14.604;2024-02-26T11:50:41;11.05;;;8.20;;
66425;SDS011;53237;46.158;14.604;2024-02-26T11:53:24;14.15;;;8.80;;
66425;SDS011;53237;46.158;14.604;2024-02-26T11:58:35;8.35;;;6.60;;
66425;SDS011;53237;46.158;14.604;2024-02-26T12:01:03;8.30;;;6.50;;
66425;SDS011;53237;46.158;14.604;2024-02-26T12:03:29;8.07;;;6.97;;
66425;SDS011;53237;46.158;14.604;2024-02-26T12:05:56;10.30;;;8.05;;
66425;SDS011;53237;46.158;14.604;2024-02-26T12:08:22;9.80;;;7.57;;
66425;SDS011;53237;46.158;14.604;2024-02-26T12:10:50;8.10;;;7.15;;
66425;SDS011;53237;46.158;14.604;2024-02-26T12:13:19;10.13;;;7.50;;
66425;SDS011;53237;46.158;14.604;2024-02-26T12:16:06;8.23;;;6.70;;
66425;SDS011;53237;46.158;14.604;2024-02-26T12:18:32;7.80;;;6.20;;
66425;SDS011;53237;46.158;14.604;2024-02-26T12:21:00;9.40;;;6.88;;
66425;SDS011;53237;46.158;14.604;2024-02-26T12:23:26;8.20;;;5.88;;
66425;SDS011;53237;46.158;14.604;2024-02-26T12:25:53;11.52;;;6.75;;
66425;SDS011;53237;46.158;14.604;2024-02-26T12:28:20;9.13;;;6.43;;
66425;SDS011;53237;46.158;14.604;2024-02-26T12:30:46;8.75;;;5.78;;
66425;SDS011;53237;46.158;14.604;2024-02-26T12:33:12;11.60;;;6.80;;
66425;SDS011;53237;46.158;14.604;2024-02-26T12:35:38;13.65;;;9.23;;
66425;SDS011;53237;46.158;14.604;2024-02-26T12:38:04;13.43;;;8.18;;
66425;SDS011;53237;46.158;14.604;2024-02-26T12:40:30;12.80;;;8.52;;
66425;SDS011;53237;46.158;14.604;2024-02-26T12:42:56;8.05;;;7.03;;
66425;SDS011;53237;46.158;14.604;2024-02-26T12:45:24;7.95;;;6.20;;
66425;SDS011;53237;46.158;14.604;2024-02-26T12:47:51;9.85;;;6.65;;
66425;SDS011;53237;46.158;14.604;2024-02-26T12:50:30;10.57;;;8.52;;
66425;SDS011;53237;46.158;14.604;2024-02-26T12:52:57;10.98;;;8.20;;
66425;SDS011;53237;46.158;14.604;2024-02-26T12:55:24;9.82;;;7.07;;
66425;SDS011;53237;46.158;14.604;2024-02-26T12:57:51;14.38;;;8.63;;
66425;SDS011;53237;46.158;14.604;2024-02-26T13:00:19;11.00;;;7.25;;
66425;SDS011;53237;46.158;14.604;2024-02-26T13:02:47;7.72;;;6.82;;
66425;SDS011;53237;46.158;14.604;2024-02-26T13:05:14;7.18;;;6.30;;
66425;SDS011;53237;46.158;14.604;2024-02-26T13:07:43;9.13;;;6.68;;
66425;SDS011;53237;46.158;14.604;2024-02-26T13:10:11;8.32;;;7.00;;
66425;SDS011;53237;46.158;14.604;2024-02-26T13:12:41;9.10;;;7.07;;
66425;SDS011;53237;46.158;14.604;2024-02-26T13:15:07;9.90;;;6.35;;
66425;SDS011;53237;46.158;14.604;2024-02-26T13:17:35;8.85;;;6.47;;
66425;SDS011;53237;46.158;14.604;2024-02-26T13:20:01;9.25;;;7.25;;
66425;SDS011;53237;46.158;14.604;2024-02-26T13:22:28;12.95;;;7.80;;
66425;SDS011;53237;46.158;14.604;2024-02-26T13:24:58;9.25;;;8.10;;
66425;SDS011;53237;46.158;14.604;2024-02-26T13:27:24;9.25;;;7.82;;
66425;SDS011;53237;46.158;14.604;2024-02-26T13:30:10;8.98;;;7.00;;
66425;SDS011;53237;46.158;14.604;2024-02-26T13:32:36;7.15;;;6.45;;
66425;SDS011;53237;46.158;14.604;2024-02-26T13:35:09;9.50;;;6.43;;
66425;SDS011;53237;46.158;14.604;2024-02-26T13:37:36;8.77;;;6.68;;
66425;SDS011;53237;46.158;14.604;2024-02-26T13:40:10;8.45;;;6.93;;
66425;SDS011;53237;46.158;14.604;2024-02-26T13:42:36;9.02;;;7.00;;
66425;SDS011;53237;46.158;14.604;2024-02-26T13:45:03;7.82;;;5.82;;
66425;SDS011;53237;46.158;14.604;2024-02-26T13:47:33;7.50;;;5.55;;
66425;SDS011;53237;46.158;14.604;2024-02-26T13:49:59;4.72;;;4.18;;
66425;SDS011;53237;46.158;14.604;2024-02-26T13:52:25;5.05;;;4.00;;
66425;SDS011;53237;46.158;14.604;2024-02-26T13:54:51;4.35;;;3.60;;
66425;SDS011;53237;46.158;14.604;2024-02-26T13:57:18;5.03;;;3.75;;
66425;SDS011;53237;46.158;14.604;2024-02-26T13:59:45;5.60;;;2.72;;
66425;SDS011;53237;46.158;14.604;2024-02-26T14:02:11;3.08;;;2.50;;
66425;SDS011;53237;46.158;14.604;2024-02-26T14:04:37;2.90;;;2.60;;
66425;SDS011;53237;46.158;14.604;2024-02-26T14:07:03;5.45;;;2.72;;
66425;SDS011;53237;46.158;14.604;2024-02-26T14:09:30;6.03;;;2.92;;
66425;SDS011;53237;46.158;14.604;2024-02-26T14:11:57;4.50;;;3.08;;
66425;SDS011;53237;46.158;14.604;2024-02-26T14:14:23;5.03;;;3.80;;
66425;SDS011;53237;46.158;14.604;2024-02-26T14:16:50;4.60;;;4.13;;
66425;SDS011;53237;46.158;14.604;2024-02-26T14:19:16;5.78;;;4.30;;
66425;SDS011;53237;46.158;14.604;2024-02-26T14:21:43;6.03;;;3.95;;
66425;SDS011;53237;46.158;14.604;2024-02-26T14:24:09;6.70;;;4.43;;
66425;SDS011;53237;46.158;14.604;2024-02-26T14:26:35;8.63;;;4.75;;
66425;SDS011;53237;46.158;14.604;2024-02-26T14:29:01;5.75;;;4.47;;
66425;SDS011;53237;46.158;14.604;2024-02-26T14:31:27;5.30;;;4.28;;
66425;SDS011;53237;46.158;14.604;2024-02-26T14:33:53;5.80;;;3.85;;